Time;durP1;ratioP1;P1;durP2;ratioP2;P2;SDS_P1;SDS_P2;PMS_P1;PMS_P2;Temp;Humidity;BMP_temperature;BMP_pressure;BME280_temperature;BME280_humidity;BME280_pressure;Samples;Min_cycle;Max_cycle;Signal;HPM_P1;HPM_P2
2023/04/21 00:00:08;;;;;;;17.67;11.77;;;8.30;99.90;;;;;;4009998;29;20658;-95
2023/04/21 00:02:09;;;;;;;15.40;10.80;;;8.40;99.90;;;;;;4025350;29;20190;-93
2023/04/21 00:04:13;;;;;;;17.03;10.97;;;8.40;99.90;;;;;;4010112;29;20202;-93
2023/04/21 00:06:21;;;;;;;18.80;11.47;;;8.50;99.90;;;;;;4009885;29;20589;-94
2023/04/21 00:08:22;;;;;;;15.57;11.00;;;8.50;99.90;;;;;;4010108;29;20201;-94
2023/04/21 00:10:22;;;;;;;18.10;11.37;;;8.40;99.90;;;;;;4009807;29;20211;-96
2023/04/21 00:12:23;;;;;;;16.73;10.77;;;8.30;99.90;;;;;;4040407;29;20609;-93
2023/04/21 00:14:24;;;;;;;19.33;11.17;;;8.20;99.90;;;;;;4025114;29;20229;-92
2023/04/21 00:16:25;;;;;;;16.03;11.20;;;8.10;99.90;;;;;;4010150;29;20182;-93
2023/04/21 00:18:26;;;;;;;15.27;11.27;;;8.00;99.90;;;;;;4025242;29;20186;-95
2023/04/21 00:20:27;;;;;;;16.27;11.53;;;7.90;99.90;;;;;;4009449;29;20179;-94
2023/04/21 00:22:28;;;;;;;17.07;11.73;;;7.80;99.90;;;;;;4025065;29;20189;-93
2023/04/21 00:24:28;;;;;;;19.53;12.07;;;7.70;99.90;;;;;;4009580;29;20286;-93
2023/04/21 00:26:29;;;;;;;17.30;11.93;;;7.70;99.90;;;;;;4025175;29;20179;-93
2023/04/21 00:28:31;;;;;;;20.30;12.90;;;7.60;99.90;;;;;;4009521;29;20183;-93
2023/04/21 00:30:32;;;;;;;18.87;11.77;;;7.70;99.90;;;;;;4009251;29;20214;-93
2023/04/21 00:32:33;;;;;;;16.03;11.67;;;7.70;99.90;;;;;;4009611;29;20191;-93
2023/04/21 00:34:34;;;;;;;18.83;11.93;;;7.70;99.90;;;;;;4010065;29;20203;-94
2023/04/21 00:36:35;;;;;;;20.87;12.73;;;7.70;99.90;;;;;;4024494;29;20181;-93
2023/04/21 00:38:36;;;;;;;19.67;12.60;;;7.70;99.90;;;;;;4009421;29;20663;-91
2023/04/21 00:40:36;;;;;;;17.90;11.97;;;7.70;99.90;;;;;;4009685;29;20171;-96
2023/04/21 00:42:38;;;;;;;18.27;12.30;;;7.80;99.90;;;;;;4024464;29;20178;-93
2023/04/21 00:44:39;;;;;;;18.93;12.20;;;7.90;99.90;;;;;;4009753;29;20763;-95
2023/04/21 00:46:42;;;;;;;17.87;12.90;;;7.90;99.90;;;;;;4009177;29;20183;-95
2023/04/21 00:48:42;;;;;;;17.77;12.43;;;7.90;99.90;;;;;;4009383;29;20656;-95
2023/04/21 00:50:44;;;;;;;19.63;13.37;;;7.90;99.90;;;;;;4025127;29;20266;-93
2023/04/21 00:52:45;;;;;;;19.17;12.63;;;7.90;99.90;;;;;;4024671;29;20258;-93
2023/04/21 00:54:46;;;;;;;17.37;12.73;;;7.90;99.90;;;;;;4024416;29;20197;-92
2023/04/21 00:56:49;;;;;;;17.93;12.90;;;7.90;99.90;;;;;;4008288;29;20186;-94
2023/04/21 00:58:50;;;;;;;18.67;13.23;;;8.00;99.90;;;;;;4009401;29;20187;-95
2023/04/21 01:00:50;;;;;;;16.93;12.77;;;7.90;99.90;;;;;;4009404;29;20177;-92
2023/04/21 01:02:51;;;;;;;19.17;12.50;;;7.90;99.90;;;;;;4024435;29;20202;-94
2023/04/21 01:04:52;;;;;;;18.37;13.67;;;8.00;99.90;;;;;;4024651;29;20257;-93
2023/04/21 01:06:53;;;;;;;18.90;13.30;;;8.00;99.90;;;;;;4024529;29;20174;-93
2023/04/21 01:08:54;;;;;;;18.93;13.87;;;8.10;99.90;;;;;;4009251;29;20266;-94
2023/04/21 01:10:55;;;;;;;21.83;13.33;;;8.20;99.90;;;;;;4009183;29;20221;-92
2023/04/21 01:12:56;;;;;;;20.47;13.57;;;8.30;99.90;;;;;;4024882;29;20582;-94
2023/04/21 01:14:57;;;;;;;20.20;13.63;;;8.40;99.90;;;;;;4024446;29;20577;-96
2023/04/21 01:16:58;;;;;;;18.13;13.77;;;8.40;99.90;;;;;;4024513;29;20229;-93
2023/04/21 01:19:00;;;;;;;19.40;13.33;;;8.40;99.90;;;;;;4009544;29;20244;-93
2023/04/21 01:21:03;;;;;;;17.67;13.30;;;8.30;99.90;;;;;;4009527;29;20183;-92
2023/04/21 01:23:04;;;;;;;19.60;14.57;;;8.20;99.90;;;;;;4024748;29;20178;-93
2023/04/21 01:25:06;;;;;;;21.03;15.30;;;8.10;99.90;;;;;;4024482;29;20330;-94
2023/04/21 01:27:11;;;;;;;20.77;15.03;;;8.10;99.90;;;;;;4024231;29;20182;-93
2023/04/21 01:29:12;;;;;;;20.27;14.33;;;8.00;99.90;;;;;;4009283;29;20183;-93
2023/04/21 01:31:15;;;;;;;21.90;14.93;;;8.00;99.90;;;;;;4009362;29;20179;-95
2023/04/21 01:33:18;;;;;;;20.30;15.70;;;7.90;99.90;;;;;;4009050;29;20205;-95
2023/04/21 01:35:19;;;;;;;23.97;16.87;;;7.80;99.90;;;;;;4008945;29;20198;-95
2023/04/21 01:37:23;;;;;;;27.17;16.07;;;7.70;99.90;;;;;;4009050;29;20195;-93
2023/04/21 01:39:25;;;;;;;24.47;17.30;;;7.60;99.90;;;;;;4009616;29;20585;-94
2023/04/21 01:41:26;;;;;;;21.67;16.53;;;7.70;99.90;;;;;;4010093;29;20178;-95
2023/04/21 01:48:22;;;;;;;31.03;20.47;;;7.60;99.90;;;;;;4450278;23;20248;-93
2023/04/21 03:13:42;;;;;;;77.53;42.83;;;7.70;99.90;;;;;;4049966;29;20237;-95
2023/04/21 03:16:41;;;;;;;77.00;43.70;;;7.70;99.90;;;;;;4050775;29;20431;-96
2023/04/21 03:19:41;;;;;;;80.80;45.67;;;7.60;99.90;;;;;;4018480;29;20293;-94
2023/04/21 03:25:13;;;;;;;86.93;46.13;;;7.50;99.90;;;;;;4083636;29;20210;-94
2023/04/21 03:27:58;;;;;;;88.20;46.70;;;7.50;99.90;;;;;;4081171;29;20200;-94
2023/04/21 03:30:33;;;;;;;85.77;46.97;;;7.50;99.90;;;;;;4074956;29;20692;-94
2023/04/21 03:42:08;;;;;;;;;;;;;;;;;;;;;
2023/04/21 03:44:46;;;;;;;93.80;47.73;;;7.40;99.90;;;;;;4105038;28;20254;-93
2023/04/21 03:47:29;;;;;;;90.80;48.33;;;7.40;99.90;;;;;;4112186;28;20197;-94
2023/04/21 03:50:41;;;;;;;95.03;49.37;;;7.50;99.90;;;;;;4093826;29;20221;-96
2023/04/21 03:53:03;;;;;;;96.07;49.37;;;7.60;99.90;;;;;;4113261;28;20253;-95
2023/04/21 03:55:26;;;;;;;100.03;49.33;;;7.70;99.90;;;;;;4098314;28;20179;-94
2023/04/21 03:57:57;;;;;;;94.27;49.17;;;7.60;99.90;;;;;;4110168;28;20214;-94
2023/04/21 04:00:30;;;;;;;94.70;49.37;;;8.00;99.90;;;;;;4084407;29;20195;-94
2023/04/21 04:02:54;;;;;;;98.93;50.67;;;8.10;99.90;;;;;;4109563;28;20269;-94
2023/04/21 04:04:54;;;;;;;99.33;50.83;;;8.20;99.90;;;;;;4094195;29;20679;-93
2023/04/21 04:06:58;;;;;;;101.40;50.80;;;8.30;99.90;;;;;;4094729;28;20156;-94
2023/04/21 04:09:28;;;;;;;103.97;51.53;;;8.20;99.90;;;;;;4096152;29;20187;-94
2023/04/21 04:11:42;;;;;;;106.43;52.60;;;8.20;99.90;;;;;;4092324;29;20163;-95
2023/04/21 04:14:13;;;;;;;108.17;53.83;;;8.10;99.90;;;;;;4200682;23;20230;-96
2023/04/21 04:16:46;;;;;;;108.43;52.70;;;8.00;99.90;;;;;;4123833;28;20193;-94
2023/04/21 04:19:21;;;;;;;112.53;54.40;;;8.00;99.90;;;;;;4095612;29;20328;-93
2023/04/21 04:24:52;;;;;;;108.23;54.17;;;8.00;99.90;;;;;;4259319;23;20269;-94
2023/04/21 04:27:06;;;;;;;115.13;54.37;;;8.10;99.90;;;;;;4114116;28;20218;-94
2023/04/21 04:29:48;;;;;;;120.63;54.50;;;8.10;99.90;;;;;;4109124;28;20607;-94
2023/04/21 04:32:09;;;;;;;113.03;54.93;;;8.10;99.90;;;;;;4124854;28;20166;-94
2023/04/21 04:34:37;;;;;;;117.97;54.80;;;8.10;99.90;;;;;;4307992;23;20286;-93
2023/04/21 04:36:43;;;;;;;120.77;56.27;;;8.00;99.90;;;;;;4100133;29;20156;-93
2023/04/21 04:39:09;;;;;;;116.67;55.53;;;8.00;99.90;;;;;;4114070;28;20742;-95
2023/04/21 04:41:32;;;;;;;117.40;54.20;;;8.00;99.90;;;;;;4099629;29;20219;-94
2023/04/21 04:43:37;;;;;;;107.77;52.53;;;8.10;99.90;;;;;;4112632;28;20222;-94
2023/04/21 04:46:19;;;;;;;114.57;51.77;;;7.80;99.90;;;;;;4117755;28;20239;-94
2023/04/21 04:48:52;;;;;;;99.03;47.60;;;7.60;99.90;;;;;;4100781;29;20191;-93
2023/04/21 04:51:22;;;;;;;97.40;49.17;;;7.70;99.90;;;;;;4092623;29;20215;-93
2023/04/21 04:53:38;;;;;;;95.77;49.13;;;7.60;99.90;;;;;;4115365;28;20214;-95
2023/04/21 04:56:06;;;;;;;92.27;50.97;;;7.40;99.90;;;;;;4114585;28;20190;-94
2023/04/21 05:00:58;;;;;;;92.37;48.03;;;7.50;99.90;;;;;;4627253;23;20220;-92
2023/04/21 05:03:26;;;;;;;89.27;48.60;;;7.70;99.90;;;;;;4189046;23;20226;-94
2023/04/21 05:05:56;;;;;;;85.73;47.60;;;7.80;99.90;;;;;;4115514;28;20154;-94
2023/04/21 05:08:18;;;;;;;83.63;46.70;;;8.00;99.90;;;;;;4115490;28;20171;-94
2023/04/21 05:10:44;;;;;;;82.47;45.77;;;8.10;99.90;;;;;;4098133;28;20223;-93
2023/04/21 05:12:55;;;;;;;80.60;44.70;;;8.10;99.90;;;;;;4097360;29;20230;-95
2023/04/21 05:15:00;;;;;;;81.17;45.03;;;7.90;99.90;;;;;;4092041;29;20575;-93
2023/04/21 05:17:12;;;;;;;76.20;45.50;;;7.80;99.90;;;;;;4096670;29;20219;-94
2023/04/21 05:19:29;;;;;;;77.40;43.57;;;8.00;99.90;;;;;;4113206;28;20210;-93
2023/04/21 05:21:43;;;;;;;76.47;43.30;;;7.70;99.90;;;;;;4114782;28;20185;-93
2023/04/21 05:24:05;;;;;;;70.60;42.80;;;7.80;99.90;;;;;;4124016;28;20214;-93
2023/04/21 05:26:06;;;;;;;69.97;41.27;;;7.70;99.90;;;;;;4113101;28;20198;-94
2023/04/21 05:28:22;;;;;;;70.40;41.73;;;7.60;99.90;;;;;;4129999;28;20158;-93
2023/04/21 05:30:23;;;;;;;67.93;41.33;;;7.80;99.90;;;;;;4113612;28;20254;-94
2023/04/21 05:32:30;;;;;;;65.47;40.33;;;7.90;99.90;;;;;;4114660;28;20191;-94
2023/04/21 05:34:35;;;;;;;68.40;41.33;;;7.80;99.90;;;;;;4095958;29;20302;-93
2023/04/21 05:36:52;;;;;;;66.67;41.37;;;7.80;99.90;;;;;;4093849;29;20188;-95
2023/04/21 05:39:30;;;;;;;;;;;;;;;;;;;;;
2023/04/21 05:41:56;;;;;;;;;;;;;;;;;;;;;
2023/04/21 05:48:28;;;;;;;54.23;36.07;;;8.00;99.90;;;;;;3983898;29;20188;-93
2023/04/21 05:51:20;;;;;;;;;;;;;;;;;;;;;
2023/04/21 05:54:32;;;;;;;57.83;34.37;;;7.80;99.90;;;;;;4011273;29;20214;-94
2023/04/21 05:57:16;;;;;;;54.87;34.70;;;7.70;99.90;;;;;;4011213;29;20228;-94
2023/04/21 05:59:29;;;;;;;52.20;32.83;;;8.10;99.90;;;;;;4070501;29;20722;-95
2023/04/21 06:05:16;;;;;;;48.00;32.13;;;8.30;99.90;;;;;;4003633;29;20209;-95
2023/04/21 06:14:33;;;;;;;46.57;29.17;;;8.80;99.90;;;;;;4312735;23;20248;-95
2023/04/21 06:17:09;;;;;;;42.53;29.20;;;8.50;99.90;;;;;;4086687;28;20186;-95
2023/04/21 06:19:38;;;;;;;43.60;27.63;;;8.30;99.90;;;;;;4123208;28;20340;-96
2023/04/21 06:21:47;;;;;;;38.07;26.13;;;8.40;99.90;;;;;;4110140;28;20247;-96
2023/04/21 06:24:26;;;;;;;;;;;;;;;;;;;;;
2023/04/21 06:26:40;;;;;;;35.50;24.40;;;8.90;99.90;;;;;;4124231;28;20209;-95
2023/04/21 06:29:34;;;;;;;32.13;22.67;;;9.20;99.90;;;;;;4112175;28;20183;-96
2023/04/21 06:32:19;;;;;;;30.20;21.07;;;9.20;99.90;;;;;;4119487;28;20198;-95
2023/04/21 06:34:53;;;;;;;28.23;20.67;;;8.90;99.90;;;;;;4093902;29;20203;-96
2023/04/21 06:37:20;;;;;;;30.60;20.73;;;8.90;99.90;;;;;;4104272;28;20185;-96
2023/04/21 06:40:32;;;;;;;28.30;19.03;;;9.00;99.90;;;;;;4096913;28;20190;-96
2023/04/21 06:42:44;;;;;;;28.77;20.17;;;8.90;99.90;;;;;;4088100;28;20187;-95
2023/04/21 06:48:32;;;;;;;24.63;18.33;;;9.10;99.90;;;;;;4076577;29;20203;-94
2023/04/21 06:53:23;;;;;;;23.77;18.03;;;9.10;99.90;;;;;;4072550;29;20210;-96
2023/04/21 06:55:33;;;;;;;24.77;17.97;;;9.00;99.90;;;;;;4040493;29;20188;-95
2023/04/21 06:57:59;;;;;;;23.10;17.20;;;9.10;99.90;;;;;;4056885;29;20193;-95
2023/04/21 07:00:41;;;;;;;23.23;16.67;;;8.90;99.90;;;;;;4055383;29;20668;-96
2023/04/21 07:03:37;;;;;;;25.10;17.37;;;8.80;99.90;;;;;;4058675;29;20191;-95
2023/04/21 07:09:17;;;;;;;24.57;17.40;;;9.00;99.90;;;;;;4040723;29;20207;-96
2023/04/21 07:15:20;;;;;;;23.02;15.35;;;10.50;99.90;;;;;;4074321;29;20259;-96
2023/04/21 07:17:51;;;;;;;19.95;13.82;;;12.40;99.90;;;;;;4040261;29;20201;-95
2023/04/21 07:20:47;;;;;;;15.60;11.93;;;13.20;99.90;;;;;;4054917;29;20177;-95
2023/04/21 07:26:55;;;;;;;17.88;12.88;;;12.30;99.90;;;;;;3998614;29;20337;-95
2023/04/21 07:29:32;;;;;;;16.55;12.65;;;13.20;99.90;;;;;;4023313;29;20681;-96
2023/04/21 07:31:33;;;;;;;23.85;12.60;;;14.10;99.90;;;;;;4001372;29;20206;-94
2023/04/21 07:33:52;;;;;;;14.50;11.98;;;15.00;99.90;;;;;;4023648;29;20272;-96
2023/04/21 07:36:14;;;;;;;14.68;11.90;;;16.00;99.90;;;;;;4025530;29;20273;-95
2023/04/21 07:38:20;;;;;;;13.75;11.20;;;17.30;99.90;;;;;;4024290;29;20192;-93
2023/04/21 07:40:43;;;;;;;12.70;11.32;;;18.00;99.90;;;;;;4058921;29;20168;-95
2023/04/21 07:45:37;;;;;;;13.02;9.82;;;17.80;99.90;;;;;;4045449;29;20750;-95
2023/04/21 07:47:38;;;;;;;12.25;10.48;;;17.30;99.90;;;;;;4026851;29;20179;-96
2023/04/21 07:49:39;;;;;;;12.07;10.75;;;17.50;99.90;;;;;;4008197;29;20214;-93
2023/04/21 07:51:40;;;;;;;11.63;10.43;;;16.80;99.90;;;;;;4006640;29;20179;-93
2023/04/21 07:53:41;;;;;;;13.20;11.43;;;15.10;99.90;;;;;;4028385;29;20202;-94
2023/04/21 07:55:42;;;;;;;14.75;11.45;;;13.60;99.90;;;;;;4022046;29;20254;-94
2023/04/21 07:57:42;;;;;;;13.88;10.80;;;13.40;99.90;;;;;;4037269;29;20186;-92
2023/04/21 07:59:43;;;;;;;14.45;11.10;;;13.40;99.90;;;;;;4037519;29;20181;-93
2023/04/21 08:01:44;;;;;;;12.45;10.52;;;13.60;99.90;;;;;;4022844;29;20182;-91
2023/04/21 08:03:45;;;;;;;15.05;11.65;;;13.20;99.90;;;;;;4029565;29;20206;-92
2023/04/21 08:05:46;;;;;;;13.35;11.18;;;13.10;99.90;;;;;;4046164;29;20202;-94
2023/04/21 08:08:07;;;;;;;14.80;10.90;;;13.00;99.90;;;;;;4048670;29;20188;-93
2023/04/21 08:10:08;;;;;;;19.20;10.88;;;13.00;99.90;;;;;;4028039;29;20217;-94
2023/04/21 08:12:09;;;;;;;13.40;10.40;;;12.80;99.90;;;;;;4042242;29;20186;-91
2023/04/21 08:14:10;;;;;;;14.68;10.93;;;13.30;99.90;;;;;;4026672;29;20343;-93
2023/04/21 08:16:11;;;;;;;12.57;10.27;;;13.60;99.90;;;;;;4029386;29;20555;-94
2023/04/21 08:18:15;;;;;;;12.63;10.05;;;13.50;99.90;;;;;;4042943;29;20185;-94
2023/04/21 08:20:16;;;;;;;15.27;11.02;;;13.10;99.90;;;;;;4027584;29;20173;-91
2023/04/21 08:22:17;;;;;;;18.88;12.98;;;13.80;99.90;;;;;;4046620;29;20182;-93
2023/04/21 08:24:18;;;;;;;15.48;10.70;;;14.80;99.90;;;;;;4030876;29;20178;-95
2023/04/21 08:26:20;;;;;;;11.60;9.43;;;15.20;99.90;;;;;;4047944;29;20162;-93
2023/04/21 08:28:21;;;;;;;12.85;10.07;;;15.20;99.90;;;;;;4036922;29;20191;-94
2023/04/21 08:30:22;;;;;;;12.18;9.85;;;15.60;99.90;;;;;;4047285;29;20221;-92
2023/04/21 08:32:29;;;;;;;14.48;9.73;;;15.10;99.90;;;;;;4034680;29;20169;-94
2023/04/21 08:34:30;;;;;;;12.43;9.48;;;15.00;99.90;;;;;;4037189;29;20183;-95
2023/04/21 08:36:31;;;;;;;13.63;10.23;;;15.00;99.90;;;;;;4051587;29;20168;-90
2023/04/21 08:38:32;;;;;;;14.13;10.35;;;15.50;99.90;;;;;;4040055;29;20190;-91
2023/04/21 08:40:38;;;;;;;11.93;9.23;;;16.10;99.90;;;;;;4036994;29;20193;-91
2023/04/21 08:42:39;;;;;;;14.48;9.98;;;16.20;99.90;;;;;;4054383;29;20256;-91
2023/04/21 08:45:02;;;;;;;12.18;9.07;;;16.80;99.90;;;;;;4038429;29;20214;-92
2023/04/21 08:47:13;;;;;;;10.60;9.10;;;17.00;99.90;;;;;;4052829;29;20185;-92
2023/04/21 08:49:18;;;;;;;13.23;10.13;;;16.50;99.90;;;;;;4038066;29;20179;-91
2023/04/21 08:51:38;;;;;;;12.38;9.98;;;16.60;99.90;;;;;;4048766;29;20177;-93
2023/04/21 08:53:40;;;;;;;10.95;9.13;;;18.10;99.90;;;;;;4027148;29;20211;-95
2023/04/21 08:55:41;;;;;;;13.82;9.57;;;17.90;99.90;;;;;;4027786;29;20338;-94
2023/04/21 08:57:42;;;;;;;11.50;9.23;;;18.00;99.90;;;;;;4029612;29;20173;-95
2023/04/21 08:59:44;;;;;;;12.02;8.95;;;18.50;99.90;;;;;;4027501;29;20243;-94
2023/04/21 09:02:07;;;;;;;13.85;8.75;;;18.60;99.90;;;;;;4027663;29;20255;-93
2023/04/21 09:04:16;;;;;;;14.68;8.70;;;19.10;99.90;;;;;;4027565;29;20738;-91
2023/04/21 09:06:16;;;;;;;12.35;8.77;;;18.80;99.90;;;;;;4041174;29;20242;-94
2023/04/21 09:08:17;;;;;;;11.82;8.20;;;18.70;99.90;;;;;;4041038;29;20205;-93
2023/04/21 09:10:24;;;;;;;11.07;8.73;;;18.70;99.90;;;;;;4026246;29;20308;-92
2023/04/21 09:12:25;;;;;;;10.10;8.25;;;18.90;99.90;;;;;;4025742;29;20190;-91
2023/04/21 09:14:33;;;;;;;8.25;7.20;;;18.10;99.90;;;;;;4024689;29;20195;-93
2023/04/21 09:16:33;;;;;;;10.73;8.93;;;17.70;99.90;;;;;;4024242;29;20642;-93
2023/04/21 09:18:38;;;;;;;9.35;8.35;;;17.10;99.90;;;;;;4039325;29;20188;-94
2023/04/21 09:20:40;;;;;;;11.70;8.25;;;17.00;99.90;;;;;;4039862;29;20217;-91
2023/04/21 09:22:41;;;;;;;9.73;8.73;;;17.30;99.90;;;;;;4024579;29;20181;-95
2023/04/21 09:24:48;;;;;;;11.20;9.23;;;17.00;99.90;;;;;;4024245;29;20201;-93
2023/04/21 09:26:52;;;;;;;11.15;8.65;;;17.00;99.90;;;;;;4025056;29;20183;-94
2023/04/21 09:28:52;;;;;;;11.68;8.50;;;16.70;99.90;;;;;;4024227;29;20306;-96
2023/04/21 09:30:56;;;;;;;15.18;9.07;;;16.80;99.90;;;;;;4039574;29;20190;-92
2023/04/21 09:32:57;;;;;;;15.38;9.60;;;17.40;99.90;;;;;;4025791;29;20178;-94
2023/04/21 09:35:00;;;;;;;11.38;9.20;;;18.30;99.90;;;;;;4026213;29;20205;-92
2023/04/21 09:37:02;;;;;;;15.48;9.63;;;18.40;99.90;;;;;;4024252;29;20183;-92
2023/04/21 09:39:05;;;;;;;10.48;8.18;;;18.40;99.90;;;;;;4039552;29;20221;-92
2023/04/21 09:41:05;;;;;;;17.00;11.02;;;18.20;99.90;;;;;;4023752;29;20214;-93
2023/04/21 09:43:07;;;;;;;17.38;9.68;;;17.30;99.90;;;;;;4038875;29;20800;-91
2023/04/21 09:45:09;;;;;;;10.38;8.57;;;17.80;99.90;;;;;;4023712;29;20196;-92
2023/04/21 09:47:11;;;;;;;16.80;8.77;;;17.90;99.90;;;;;;4023704;29;20194;-93
2023/04/21 09:49:16;;;;;;;12.13;8.55;;;18.20;99.90;;;;;;4023907;29;20185;-91
2023/04/21 09:51:17;;;;;;;12.38;9.55;;;18.40;99.90;;;;;;4023831;29;20178;-91
2023/04/21 09:53:23;;;;;;;10.05;8.40;;;18.70;99.90;;;;;;4023692;29;20276;-91
2023/04/21 09:55:29;;;;;;;10.30;8.90;;;17.80;99.90;;;;;;4023679;29;20182;-91
2023/04/21 09:57:31;;;;;;;11.07;8.80;;;16.40;99.90;;;;;;4023678;29;20599;-91
2023/04/21 09:59:35;;;;;;;12.45;9.10;;;15.70;99.90;;;;;;4023556;29;20250;-91
2023/04/21 10:01:37;;;;;;;11.68;8.68;;;15.50;99.90;;;;;;4023345;29;20218;-94
2023/04/21 10:03:39;;;;;;;10.85;8.52;;;15.60;99.90;;;;;;4038644;29;20193;-90
2023/04/21 10:05:40;;;;;;;9.43;8.40;;;16.00;99.90;;;;;;4023420;29;20243;-92
2023/04/21 10:07:42;;;;;;;13.50;9.90;;;16.30;99.90;;;;;;4023528;29;20175;-92
2023/04/21 10:09:58;;;;;;;15.25;9.93;;;17.30;99.90;;;;;;4023317;29;20265;-91
2023/04/21 10:12:01;;;;;;;13.07;9.27;;;18.00;99.90;;;;;;4023407;29;20174;-91
2023/04/21 10:14:03;;;;;;;14.35;9.05;;;16.80;99.90;;;;;;4023280;29;20205;-91
2023/04/21 10:16:08;;;;;;;11.50;8.13;;;16.30;99.90;;;;;;4038697;29;20642;-91
2023/04/21 10:18:16;;;;;;;9.48;7.45;;;16.10;99.90;;;;;;4038962;29;20246;-91
2023/04/21 10:20:17;;;;;;;9.57;7.95;;;15.70;99.90;;;;;;4038732;29;20273;-91
2023/04/21 10:22:32;;;;;;;9.70;7.10;;;15.60;99.90;;;;;;4038711;29;20655;-90
2023/04/21 10:24:38;;;;;;;11.88;8.20;;;15.50;99.90;;;;;;4023435;29;20631;-91
2023/04/21 10:26:39;;;;;;;11.93;9.15;;;15.50;99.90;;;;;;4023278;29;20214;-91
2023/04/21 10:28:42;;;;;;;15.63;10.60;;;15.70;99.90;;;;;;4022387;29;20190;-90
2023/04/21 10:30:43;;;;;;;11.75;7.28;;;15.50;99.90;;;;;;4038734;29;20177;-92
2023/04/21 10:32:45;;;;;;;18.38;10.35;;;15.70;99.90;;;;;;4023469;29;20190;-93
2023/04/21 10:34:47;;;;;;;15.98;9.60;;;15.40;99.90;;;;;;4022965;29;20191;-92
2023/04/21 10:36:53;;;;;;;14.13;9.60;;;15.70;99.90;;;;;;4038380;29;20578;-94
2023/04/21 10:38:58;;;;;;;13.82;9.88;;;15.90;99.90;;;;;;4023189;29;20266;-90
2023/04/21 10:41:35;;;;;;;11.57;8.32;;;15.70;99.90;;;;;;4022943;29;20217;-92
2023/04/21 10:43:44;;;;;;;14.52;8.07;;;15.40;99.90;;;;;;4038095;29;20205;-90
2023/04/21 10:45:44;;;;;;;13.50;9.40;;;15.60;99.90;;;;;;4022786;29;20658;-91
2023/04/21 10:47:50;;;;;;;12.45;7.70;;;15.80;99.90;;;;;;4037841;29;20288;-90
2023/04/21 10:49:51;;;;;;;13.98;8.38;;;16.00;99.90;;;;;;4022802;29;20178;-90
2023/04/21 10:51:58;;;;;;;11.45;7.97;;;15.90;99.90;;;;;;4038021;29;20547;-89
2023/04/21 10:53:58;;;;;;;10.57;8.05;;;15.70;99.90;;;;;;4022731;29;20524;-90
2023/04/21 10:56:00;;;;;;;13.65;7.70;;;15.60;99.90;;;;;;4022683;29;20237;-90
2023/04/21 10:58:03;;;;;;;9.88;7.60;;;15.50;99.90;;;;;;4022807;29;20175;-89
2023/04/21 11:00:05;;;;;;;12.05;7.70;;;15.60;99.90;;;;;;4022594;29;20225;-90
2023/04/21 11:02:10;;;;;;;10.27;7.43;;;15.50;99.90;;;;;;4022661;29;20178;-91
2023/04/21 11:04:18;;;;;;;11.23;6.65;;;15.50;99.90;;;;;;4022408;29;20259;-91
2023/04/21 11:06:19;;;;;;;6.70;4.72;;;15.30;99.90;;;;;;4022741;29;20203;-90
2023/04/21 11:08:20;;;;;;;10.50;6.30;;;15.10;99.90;;;;;;4023509;29;20192;-94
2023/04/21 11:10:21;;;;;;;11.68;7.28;;;15.30;99.90;;;;;;4037987;29;20233;-92
2023/04/21 11:12:25;;;;;;;8.00;6.38;;;15.50;99.90;;;;;;4022652;29;20626;-93
2023/04/21 11:14:25;;;;;;;10.40;6.88;;;15.60;99.90;;;;;;4022423;29;20685;-93
2023/04/21 11:16:26;;;;;;;10.43;7.68;;;15.80;99.90;;;;;;4023049;29;20178;-94
2023/04/21 11:18:41;;;;;;;10.25;6.78;;;16.00;99.90;;;;;;4022955;29;20204;-94
2023/04/21 11:20:45;;;;;;;9.38;7.35;;;16.30;99.90;;;;;;4022569;29;20606;-94
2023/04/21 11:22:52;;;;;;;10.63;8.43;;;16.00;99.90;;;;;;4037980;29;20241;-93
2023/04/21 11:24:55;;;;;;;8.45;6.55;;;16.00;99.90;;;;;;4022404;29;20185;-94
2023/04/21 11:26:57;;;;;;;11.77;8.50;;;16.00;99.90;;;;;;4022472;29;20174;-94
2023/04/21 11:29:06;;;;;;;11.98;8.73;;;15.90;99.90;;;;;;4022254;29;20182;-93
2023/04/21 11:31:07;;;;;;;14.60;8.27;;;15.90;99.90;;;;;;4022772;29;20174;-95
2023/04/21 11:33:07;;;;;;;10.23;7.45;;;16.00;99.90;;;;;;4037384;29;20287;-94
2023/04/21 11:35:09;;;;;;;10.45;8.07;;;16.10;99.90;;;;;;4023062;29;20283;-94
2023/04/21 11:37:25;;;;;;;13.43;8.70;;;16.00;99.90;;;;;;4033100;29;20183;-96
2023/04/21 11:40:34;;;;;;;12.25;8.35;;;16.30;99.90;;;;;;4051445;29;20246;-95
2023/04/21 11:48:33;;;;;;;11.70;7.65;;;16.30;99.90;;;;;;4215025;23;20217;-95
2023/04/21 11:50:37;;;;;;;12.02;8.32;;;16.50;99.90;;;;;;4014075;29;20218;-95
2023/04/21 11:52:40;;;;;;;16.80;8.38;;;16.50;99.90;;;;;;4075914;29;20243;-95
2023/04/21 11:55:18;;;;;;;11.60;8.35;;;16.50;99.90;;;;;;4076323;29;20192;-96
2023/04/21 11:57:24;;;;;;;11.23;6.63;;;16.40;99.90;;;;;;4092320;29;20334;-96
2023/04/21 12:00:10;;;;;;;10.05;7.53;;;16.20;99.90;;;;;;4087911;29;20168;-95
2023/04/21 12:02:22;;;;;;;9.82;7.93;;;16.30;99.90;;;;;;4058553;29;20185;-96
2023/04/21 12:04:32;;;;;;;9.95;7.53;;;16.50;99.90;;;;;;4063336;29;20188;-95
2023/04/21 12:06:57;;;;;;;14.95;8.02;;;16.10;99.90;;;;;;4066542;29;20191;-94
2023/04/21 12:11:35;;;;;;;13.48;7.03;;;16.00;99.90;;;;;;4018517;29;20928;-94
2023/04/21 12:13:45;;;;;;;10.55;6.95;;;15.90;99.90;;;;;;4060154;29;20204;-94
2023/04/21 12:15:45;;;;;;;12.70;7.15;;;16.10;99.90;;;;;;4090860;29;20191;-94
2023/04/21 12:17:47;;;;;;;9.10;6.57;;;16.20;99.90;;;;;;4109002;29;20606;-94
2023/04/21 12:19:50;;;;;;;7.95;6.28;;;16.10;99.90;;;;;;4075205;29;20212;-94
2023/04/21 12:22:35;;;;;;;8.23;6.25;;;16.10;99.90;;;;;;4106834;29;20221;-95
2023/04/21 12:24:55;;;;;;;7.97;5.55;;;16.20;99.90;;;;;;4087804;29;20183;-94
2023/04/21 12:26:58;;;;;;;8.02;6.18;;;16.60;99.90;;;;;;4087319;29;20195;-93
2023/04/21 12:29:01;;;;;;;7.47;5.75;;;16.90;99.90;;;;;;4065049;29;20183;-95
2023/04/21 12:31:02;;;;;;;8.70;6.00;;;17.10;99.90;;;;;;4087567;29;20689;-92
2023/04/21 12:33:03;;;;;;;6.43;5.07;;;17.10;99.90;;;;;;4071202;29;20191;-94
2023/04/21 12:35:27;;;;;;;7.80;4.90;;;16.60;99.90;;;;;;4085731;29;20175;-96
2023/04/21 12:37:37;;;;;;;7.70;4.57;;;16.40;99.90;;;;;;4071593;29;20180;-96
2023/04/21 12:39:56;;;;;;;7.45;5.60;;;16.30;99.90;;;;;;4086395;29;20207;-94
2023/04/21 12:41:57;;;;;;;8.82;5.70;;;16.50;99.90;;;;;;4085713;29;20186;-95
2023/04/21 12:44:05;;;;;;;8.98;5.20;;;16.80;99.90;;;;;;4071160;29;20225;-94
2023/04/21 12:46:09;;;;;;;7.88;5.00;;;16.90;99.90;;;;;;4072743;29;20187;-94
2023/04/21 12:48:10;;;;;;;5.68;3.42;;;17.00;99.90;;;;;;4087293;29;20255;-94
2023/04/21 12:50:13;;;;;;;7.40;4.22;;;17.00;99.90;;;;;;4073192;29;20217;-93
2023/04/21 12:52:13;;;;;;;13.95;5.72;;;17.20;99.90;;;;;;4073145;29;20191;-94
2023/04/21 12:54:35;;;;;;;5.82;3.92;;;17.40;99.90;;;;;;4077908;29;20676;-96
2023/04/21 12:56:47;;;;;;;7.53;4.28;;;17.50;99.90;;;;;;4096777;29;20243;-96
2023/04/21 12:59:14;;;;;;;6.70;4.70;;;17.40;99.90;;;;;;4094039;29;20180;-96
2023/04/21 13:01:59;;;;;;;7.10;5.38;;;17.30;99.90;;;;;;4077320;29;20210;-94
2023/04/21 13:04:42;;;;;;;11.75;4.82;;;17.70;99.90;;;;;;4071844;29;20240;-96
2023/04/21 13:06:46;;;;;;;7.30;4.57;;;17.90;99.90;;;;;;4065260;29;20197;-96
2023/04/21 13:08:55;;;;;;;5.90;5.00;;;18.00;99.90;;;;;;4060887;29;20192;-95
2023/04/21 13:11:07;;;;;;;6.60;4.40;;;17.60;99.90;;;;;;4043881;29;20290;-94
2023/04/21 13:13:08;;;;;;;8.80;5.25;;;17.80;99.90;;;;;;4090331;29;20269;-93
2023/04/21 13:15:09;;;;;;;5.72;4.10;;;18.00;99.90;;;;;;4088224;29;20243;-95
2023/04/21 13:17:19;;;;;;;7.18;3.95;;;18.20;99.90;;;;;;4105527;29;20178;-95
2023/04/21 13:19:20;;;;;;;5.97;4.57;;;18.20;99.90;;;;;;4089643;29;20207;-95
2023/04/21 13:21:21;;;;;;;7.00;4.60;;;17.80;99.90;;;;;;4091622;29;20218;-95
2023/04/21 13:23:22;;;;;;;8.20;4.18;;;18.10;99.90;;;;;;4107365;28;20195;-94
2023/04/21 13:25:36;;;;;;;6.93;4.18;;;18.10;99.90;;;;;;4105023;29;20166;-96
2023/04/21 13:27:47;;;;;;;5.95;4.05;;;18.10;99.90;;;;;;4089303;29;20644;-94
2023/04/21 13:29:49;;;;;;;19.85;4.50;;;18.10;99.90;;;;;;4090707;29;20279;-93
2023/04/21 13:31:50;;;;;;;8.32;4.93;;;18.00;99.90;;;;;;4086810;29;21328;-93
2023/04/21 13:33:55;;;;;;;7.82;4.57;;;17.80;99.90;;;;;;4123374;28;20205;-94
2023/04/21 13:35:56;;;;;;;8.07;4.45;;;17.80;99.90;;;;;;4105621;29;20222;-92
2023/04/21 13:37:56;;;;;;;4.97;3.78;;;17.70;99.90;;;;;;4085944;29;20176;-91
2023/04/21 13:39:57;;;;;;;11.73;3.83;;;17.70;99.90;;;;;;4099284;28;20278;-92
2023/04/21 13:41:58;;;;;;;5.80;3.95;;;18.00;99.90;;;;;;4100828;28;20187;-92
2023/04/21 13:43:59;;;;;;;6.82;4.00;;;18.30;99.90;;;;;;4099362;23;20227;-92
2023/04/21 13:46:00;;;;;;;5.57;3.78;;;18.10;99.90;;;;;;4085715;29;20581;-93
2023/04/21 13:48:00;;;;;;;5.70;3.83;;;18.40;99.90;;;;;;4070103;29;20176;-91